createdAt,value
2022-10-19T00:01:08.433Z,16.00
2022-10-19T00:03:37.250Z,15.70
2022-10-19T00:06:13.234Z,15.70
2022-10-19T00:08:41.376Z,15.90
2022-10-19T00:11:09.734Z,16.20
2022-10-19T00:13:39.466Z,16.40
2022-10-19T00:16:12.416Z,16.50
2022-10-19T00:18:40.814Z,16.60
2022-10-19T00:21:10.766Z,16.40
2022-10-19T00:23:38.949Z,16.20
2022-10-19T00:26:07.071Z,16.20
2022-10-19T00:28:35.263Z,16.10
2022-10-19T00:31:06.094Z,16.10
2022-10-19T00:33:34.446Z,16.10
2022-10-19T00:36:02.928Z,16.10
2022-10-19T00:38:30.850Z,16.20
2022-10-19T00:40:58.810Z,16.20
2022-10-19T00:43:28.375Z,16.20
2022-10-19T00:45:56.249Z,16.00
2022-10-19T00:48:29.413Z,15.80
2022-10-19T00:50:59.558Z,15.60
2022-10-19T00:53:29.067Z,15.60
2022-10-19T00:55:58.241Z,15.80
2022-10-19T00:58:26.204Z,15.80
2022-10-19T01:00:54.138Z,15.80
2022-10-19T01:03:22.614Z,15.60
2022-10-19T01:05:52.334Z,15.20
2022-10-19T01:08:20.232Z,14.70
2022-10-19T01:10:57.409Z,14.80
2022-10-19T01:13:36.626Z,15.20
2022-10-19T01:16:10.843Z,15.50
2022-10-19T01:18:46.931Z,15.60
2022-10-19T01:21:26.010Z,15.70
2022-10-19T01:24:27.369Z,15.80
2022-10-19T01:27:29.688Z,15.80
2022-10-19T01:30:03.935Z,15.70
2022-10-19T01:32:46.702Z,15.60
2022-10-19T01:35:25.920Z,15.60
2022-10-19T01:38:04.830Z,15.50
2022-10-19T01:40:40.018Z,15.40
2022-10-19T01:43:18.647Z,15.30
2022-10-19T01:45:53.783Z,15.30
2022-10-19T01:48:26.002Z,15.20
2022-10-19T01:50:58.583Z,15.00
2022-10-19T01:53:29.671Z,14.70
2022-10-19T01:55:59.952Z,14.70
2022-10-19T01:58:31.548Z,15.00
2022-10-19T02:01:06.235Z,15.40
2022-10-19T02:03:36.383Z,15.40
2022-10-19T02:06:07.301Z,15.40
2022-10-19T02:08:41.444Z,15.50
2022-10-19T02:11:09.750Z,15.40
2022-10-19T02:13:39.813Z,15.40
2022-10-19T02:16:14.595Z,15.10
2022-10-19T02:18:47.949Z,15.20
2022-10-19T02:21:16.239Z,15.20
2022-10-19T02:23:44.207Z,15.40
2022-10-19T02:26:12.562Z,15.50
2022-10-19T02:28:40.723Z,15.60
2022-10-19T02:31:10.750Z,15.60
2022-10-19T02:33:38.879Z,15.50
2022-10-19T02:36:07.099Z,15.40
2022-10-19T02:38:35.237Z,15.30
2022-10-19T02:41:07.544Z,15.30
2022-10-19T02:43:39.151Z,15.10
2022-10-19T02:46:12.787Z,15.00
2022-10-19T02:48:41.662Z,15.00
2022-10-19T02:51:28.487Z,14.80
2022-10-19T02:53:57.400Z,14.50
2022-10-19T02:56:28.030Z,14.30
2022-10-19T02:58:56.196Z,14.10
2022-10-19T03:01:25.518Z,14.00
2022-10-19T03:03:53.468Z,13.80
2022-10-19T03:06:21.324Z,13.60
2022-10-19T03:08:49.179Z,13.50
2022-10-19T03:11:17.016Z,13.40
2022-10-19T03:13:45.026Z,13.70
2022-10-19T03:16:13.971Z,14.20
2022-10-19T03:18:43.096Z,14.10
2022-10-19T03:21:14.248Z,14.20
2022-10-19T03:23:42.508Z,14.50
2022-10-19T03:26:15.140Z,14.90
2022-10-19T03:28:43.197Z,14.90
2022-10-19T03:31:11.034Z,15.00
2022-10-19T03:33:38.891Z,15.10
2022-10-19T03:36:23.018Z,15.20
2022-10-19T03:38:51.964Z,15.10
2022-10-19T03:41:20.116Z,14.90
2022-10-19T03:43:48.122Z,14.70
2022-10-19T03:46:16.439Z,14.70
2022-10-19T03:48:44.801Z,14.50
2022-10-19T03:51:14.648Z,14.20
2022-10-19T03:53:44.293Z,14.00
2022-10-19T03:56:13.891Z,13.90
2022-10-19T03:58:43.364Z,13.80
2022-10-19T04:01:13.305Z,13.90
2022-10-19T04:03:41.328Z,13.90
2022-10-19T04:06:12.322Z,13.90
2022-10-19T04:08:40.741Z,13.80
2022-10-19T04:11:13.751Z,13.90
2022-10-19T04:13:41.930Z,14.00
2022-10-19T04:16:10.850Z,14.30
2022-10-19T04:18:38.705Z,14.70
2022-10-19T04:21:07.181Z,15.10
2022-10-19T04:23:36.938Z,15.30
2022-10-19T04:26:07.725Z,15.30
2022-10-19T04:28:37.034Z,15.30
2022-10-19T04:31:06.392Z,15.30
2022-10-19T04:33:34.747Z,15.20
2022-10-19T04:36:05.580Z,15.20
2022-10-19T04:38:34.138Z,15.20
2022-10-19T04:41:02.831Z,15.20
2022-10-19T04:43:30.735Z,15.40
2022-10-19T04:46:03.565Z,15.20
2022-10-19T04:48:31.445Z,15.00
2022-10-19T04:50:59.460Z,14.80
2022-10-19T04:53:27.395Z,14.70
2022-10-19T04:55:55.343Z,14.60
2022-10-19T04:58:23.458Z,14.60
2022-10-19T05:00:51.566Z,14.70
2022-10-19T05:03:20.840Z,14.70
2022-10-19T05:05:48.681Z,14.60
2022-10-19T05:08:16.767Z,14.20
2022-10-19T05:10:47.597Z,14.10
2022-10-19T05:13:15.791Z,13.90
2022-10-19T05:15:43.650Z,13.80
2022-10-19T05:18:11.485Z,14.20
2022-10-19T05:20:40.708Z,14.40
2022-10-19T05:23:08.543Z,13.90
2022-10-19T05:25:36.416Z,13.60
2022-10-19T05:28:04.308Z,13.50
2022-10-19T05:30:32.529Z,13.40
2022-10-19T05:33:00.415Z,13.60
2022-10-19T05:35:28.267Z,13.70
2022-10-19T05:37:57.599Z,13.80
2022-10-19T05:40:25.465Z,13.90
2022-10-19T05:42:53.348Z,14.00
2022-10-19T05:45:21.199Z,14.10
2022-10-19T05:47:49.088Z,14.10
2022-10-19T05:50:17.103Z,14.20
2022-10-19T05:52:44.982Z,14.10
2022-10-19T05:55:14.254Z,14.10
2022-10-19T05:57:42.132Z,13.90
2022-10-19T06:00:12.332Z,13.90
2022-10-19T06:02:40.263Z,13.80
2022-10-19T06:05:08.982Z,14.00
2022-10-19T06:07:37.110Z,14.60
2022-10-19T06:10:05.631Z,15.00
2022-10-19T06:12:34.837Z,15.20
2022-10-19T06:15:02.680Z,14.90
2022-10-19T06:17:30.601Z,14.60
2022-10-19T06:19:58.477Z,14.30
2022-10-19T06:22:26.355Z,14.20
2022-10-19T06:24:54.267Z,14.10
2022-10-19T06:27:22.188Z,13.90
2022-10-19T06:29:51.418Z,13.80
2022-10-19T06:32:19.315Z,13.70
2022-10-19T06:34:47.162Z,13.60
2022-10-19T06:37:15.002Z,13.60
2022-10-19T06:39:42.891Z,13.90
2022-10-19T06:42:10.763Z,13.80
2022-10-19T06:44:38.625Z,13.50
2022-10-19T06:47:07.871Z,13.40
2022-10-19T06:49:37.144Z,13.50
2022-10-19T06:52:05.758Z,13.30
2022-10-19T06:54:33.643Z,13.10
2022-10-19T06:57:01.547Z,12.80
2022-10-19T06:59:29.454Z,12.70
2022-10-19T07:01:57.310Z,12.70
2022-10-19T07:04:26.502Z,12.70
2022-10-19T07:06:54.339Z,12.70
2022-10-19T07:09:22.405Z,12.80
2022-10-19T07:11:50.290Z,12.80
2022-10-19T07:14:18.467Z,12.90
2022-10-19T07:16:46.303Z,13.10
2022-10-19T07:19:14.136Z,12.80
2022-10-19T07:21:44.782Z,12.80
2022-10-19T07:24:12.828Z,12.60
2022-10-19T07:26:40.701Z,12.60
2022-10-19T07:29:08.609Z,12.40
2022-10-19T07:31:36.579Z,12.60
2022-10-19T07:34:06.007Z,12.50
2022-10-19T07:36:36.890Z,12.60
2022-10-19T07:39:07.497Z,12.10
2022-10-19T07:41:35.821Z,11.90
2022-10-19T07:44:03.909Z,11.90
2022-10-19T07:46:33.449Z,11.90
2022-10-19T07:49:01.827Z,11.60
2022-10-19T07:54:02.501Z,11.50
2022-10-19T07:56:32.549Z,11.40
2022-10-19T07:59:01.385Z,11.50
2022-10-19T08:01:30.736Z,11.40
2022-10-19T08:06:48.021Z,11.40
2022-10-19T08:09:33.795Z,11.60
2022-10-19T08:12:06.937Z,11.40
2022-10-19T08:14:34.860Z,11.50
2022-10-19T08:17:03.032Z,11.40
2022-10-19T08:19:30.891Z,11.50
2022-10-19T08:21:58.732Z,11.30
2022-10-19T08:24:26.613Z,11.30
2022-10-19T08:26:54.691Z,11.30
2022-10-19T08:29:25.586Z,11.30
2022-10-19T08:31:55.842Z,11.40
2022-10-19T08:34:23.716Z,11.30
2022-10-19T08:36:51.631Z,11.30
2022-10-19T08:39:19.592Z,11.20
2022-10-19T08:42:03.761Z,11.10
2022-10-19T08:44:58.871Z,11.10
2022-10-19T08:47:45.810Z,11.10
2022-10-19T08:50:19.598Z,11.00
2022-10-19T08:52:54.180Z,11.10
2022-10-19T08:55:29.079Z,11.20
2022-10-19T08:58:04.284Z,11.20
2022-10-19T09:00:41.833Z,11.20
2022-10-19T09:03:23.127Z,11.30
2022-10-19T09:06:19.721Z,11.40
2022-10-19T09:08:48.437Z,11.50
2022-10-19T09:11:17.780Z,11.40
2022-10-19T09:14:04.145Z,11.50
2022-10-19T09:16:35.747Z,11.40
2022-10-19T09:19:04.847Z,11.50
2022-10-19T09:21:47.438Z,11.50
2022-10-19T09:24:27.927Z,11.50
2022-10-19T09:26:58.386Z,11.60
2022-10-19T09:29:30.784Z,11.70
2022-10-19T09:32:04.620Z,11.80
2022-10-19T09:34:36.734Z,11.90
2022-10-19T09:37:05.183Z,11.90
2022-10-19T09:39:33.512Z,11.90
2022-10-19T09:42:08.649Z,11.90
2022-10-19T09:44:36.853Z,11.90
2022-10-19T09:47:21.089Z,12.00
2022-10-19T09:49:50.218Z,12.10
2022-10-19T09:52:33.623Z,12.40
2022-10-19T09:55:04.445Z,12.30
2022-10-19T09:57:33.075Z,12.20
2022-10-19T10:00:01.161Z,12.20
2022-10-19T10:02:34.427Z,12.20
2022-10-19T10:05:11.251Z,12.30
2022-10-19T10:07:40.490Z,12.30
2022-10-19T10:10:12.497Z,12.40
2022-10-19T10:12:41.887Z,12.50
2022-10-19T10:15:17.194Z,12.60
2022-10-19T10:17:49.735Z,12.50
2022-10-19T10:20:26.834Z,12.50
2022-10-19T10:22:58.325Z,12.60
2022-10-19T10:25:29.459Z,12.70
2022-10-19T10:28:00.111Z,12.70
2022-10-19T10:30:33.400Z,12.70
2022-10-19T10:33:13.549Z,12.80
2022-10-19T10:35:55.559Z,12.90
2022-10-19T10:38:27.545Z,12.90
2022-10-19T10:41:00.849Z,13.10
2022-10-19T10:43:32.731Z,13.10
2022-10-19T10:46:07.476Z,13.10
2022-10-19T10:48:40.186Z,13.00
2022-10-19T10:51:21.383Z,13.00
2022-10-19T10:53:49.678Z,13.00
2022-10-19T10:56:26.564Z,13.20
2022-10-19T10:58:59.804Z,13.20
2022-10-19T11:01:34.257Z,13.30
2022-10-19T11:04:09.023Z,13.50
2022-10-19T11:06:44.437Z,13.40
2022-10-19T11:09:20.118Z,13.50
2022-10-19T11:11:55.824Z,13.70
2022-10-19T11:14:29.420Z,13.60
2022-10-19T11:17:00.792Z,13.60
2022-10-19T11:19:35.859Z,13.50
2022-10-19T11:22:12.730Z,13.60
2022-10-19T11:24:54.955Z,13.50
2022-10-19T11:27:35.018Z,13.60
2022-10-19T11:30:12.118Z,13.70
2022-10-19T11:32:50.029Z,14.00
2022-10-19T11:35:47.118Z,14.00
2022-10-19T11:38:30.824Z,13.90
2022-10-19T11:41:19.289Z,13.80
2022-10-19T11:43:57.385Z,13.90
2022-10-19T11:46:35.709Z,14.00
2022-10-19T11:49:20.411Z,13.90
2022-10-19T11:51:57.389Z,14.10
2022-10-19T11:54:44.670Z,14.10
2022-10-19T11:57:17.183Z,14.20
2022-10-19T12:00:08.299Z,14.10
2022-10-19T12:03:03.875Z,14.00
2022-10-19T12:05:37.072Z,13.80
2022-10-19T12:08:22.671Z,13.90
2022-10-19T12:10:58.257Z,14.10
2022-10-19T12:13:41.275Z,14.30
2022-10-19T12:16:11.771Z,14.40
2022-10-19T12:18:43.556Z,14.30
2022-10-19T12:21:15.548Z,14.30
2022-10-19T12:23:46.655Z,14.30
2022-10-19T12:28:54.743Z,14.50
2022-10-19T12:31:24.667Z,14.30
2022-10-19T12:34:01.924Z,14.30
2022-10-19T12:36:39.053Z,14.40
2022-10-19T12:39:17.567Z,14.30
2022-10-19T12:41:52.179Z,14.10
2022-10-19T12:44:52.748Z,14.00
2022-10-19T12:47:24.995Z,14.00
2022-10-19T12:49:55.150Z,14.20
2022-10-19T12:52:39.137Z,14.00
2022-10-19T12:55:34.645Z,14.20
2022-10-19T12:58:05.896Z,14.30
2022-10-19T13:00:36.103Z,14.30
2022-10-19T13:03:07.634Z,14.20
2022-10-19T13:05:36.589Z,14.10
2022-10-19T13:08:10.607Z,14.20
2022-10-19T13:11:03.029Z,14.20
2022-10-19T13:13:56.911Z,14.30
2022-10-19T13:17:03.135Z,14.30
2022-10-19T13:19:31.420Z,14.30
2022-10-19T13:22:26.598Z,14.30
2022-10-19T13:25:23.515Z,14.30
2022-10-19T13:27:53.871Z,14.30
2022-10-19T13:31:08.254Z,14.40
2022-10-19T13:33:50.842Z,14.40
2022-10-19T13:36:19.520Z,14.40
2022-10-19T13:38:50.115Z,14.40
2022-10-19T13:41:22.722Z,14.50
2022-10-19T13:43:58.947Z,14.50
2022-10-19T13:46:52.418Z,14.40
2022-10-19T13:49:52.178Z,14.40
2022-10-19T13:52:44.026Z,14.50
2022-10-19T13:55:32.898Z,14.40
2022-10-19T13:58:35.161Z,14.60
2022-10-19T14:01:16.483Z,14.50
2022-10-19T14:04:02.911Z,14.50
2022-10-19T14:06:34.868Z,14.40
2022-10-19T14:09:47.823Z,14.30
2022-10-19T14:12:22.201Z,14.30
2022-10-19T14:14:50.266Z,14.50
2022-10-19T14:17:21.605Z,14.60
2022-10-19T14:19:52.513Z,14.50
2022-10-19T14:22:29.858Z,14.40
2022-10-19T14:25:07.637Z,14.50
2022-10-19T14:27:36.307Z,14.50
2022-10-19T14:30:05.424Z,14.50
2022-10-19T14:32:36.017Z,14.20
2022-10-19T14:35:16.826Z,14.20
2022-10-19T14:37:45.375Z,14.20
2022-10-19T14:40:27.954Z,14.20
2022-10-19T14:42:57.287Z,14.30
2022-10-19T14:45:26.940Z,14.60
2022-10-19T14:48:01.994Z,14.60
2022-10-19T14:50:39.651Z,14.50
2022-10-19T14:53:22.970Z,14.40
2022-10-19T14:55:53.272Z,14.30
2022-10-19T14:58:23.264Z,14.50
2022-10-19T15:00:53.365Z,14.40
2022-10-19T15:03:26.828Z,14.40
2022-10-19T15:05:58.650Z,14.40
2022-10-19T15:08:37.250Z,14.30
2022-10-19T15:11:07.714Z,14.30
2022-10-19T15:13:41.293Z,14.10
2022-10-19T15:16:30.956Z,14.20
2022-10-19T15:19:04.437Z,14.20
2022-10-19T15:21:33.585Z,14.30
2022-10-19T15:24:10.036Z,14.40
2022-10-19T15:26:38.035Z,14.50
2022-10-19T15:29:10.740Z,14.30
2022-10-19T15:31:38.617Z,14.10
2022-10-19T15:34:19.879Z,14.10
2022-10-19T15:36:56.519Z,13.90
2022-10-19T15:39:37.786Z,14.10
2022-10-19T15:42:38.947Z,14.20
2022-10-19T15:45:32.069Z,14.30
2022-10-19T15:48:27.995Z,14.40
2022-10-19T15:50:57.930Z,14.50
2022-10-19T15:53:26.744Z,14.60
2022-10-19T15:55:54.707Z,14.50
2022-10-19T15:58:22.665Z,14.50
2022-10-19T16:00:50.516Z,14.40
2022-10-19T16:03:18.379Z,14.30
2022-10-19T16:05:47.133Z,14.20
2022-10-19T16:08:16.372Z,14.20
2022-10-19T16:10:45.091Z,14.20
2022-10-19T16:13:12.954Z,14.20
2022-10-19T16:15:40.796Z,14.20
2022-10-19T16:18:10.613Z,14.10
2022-10-19T16:20:38.810Z,14.10
2022-10-19T16:23:06.646Z,14.00
2022-10-19T16:25:35.947Z,14.10
2022-10-19T16:28:03.808Z,14.30
2022-10-19T16:30:31.650Z,14.50
2022-10-19T16:32:59.537Z,14.50
2022-10-19T16:35:27.426Z,14.50
2022-10-19T16:37:55.293Z,14.60
2022-10-19T16:40:24.547Z,14.50
2022-10-19T16:42:56.603Z,14.50
2022-10-19T16:45:24.488Z,14.40
2022-10-19T16:47:52.369Z,14.30
2022-10-19T16:50:20.618Z,14.30
2022-10-19T16:52:48.822Z,14.10
2022-10-19T16:55:16.686Z,14.00
2022-10-19T16:57:44.523Z,13.90
2022-10-19T17:00:14.403Z,13.70
2022-10-19T17:02:44.483Z,13.70
2022-10-19T17:05:14.459Z,13.70
2022-10-19T17:07:42.281Z,13.70
2022-10-19T17:10:11.028Z,13.70
2022-10-19T17:12:40.375Z,13.80
2022-10-19T17:15:40.901Z,13.70
2022-10-19T17:17:58.398Z,13.50
2022-10-19T17:20:26.318Z,13.50
2022-10-19T17:22:54.187Z,13.30
2022-10-19T17:25:22.046Z,13.30
2022-10-19T17:27:51.432Z,13.40
2022-10-19T17:30:19.787Z,13.30
2022-10-19T17:32:47.655Z,13.40
2022-10-19T17:35:17.071Z,13.40
2022-10-19T17:37:45.079Z,13.10
2022-10-19T17:40:13.716Z,13.20
2022-10-19T17:42:41.669Z,13.30
2022-10-19T17:45:11.021Z,13.40
2022-10-19T17:47:38.883Z,13.00
2022-10-19T17:50:07.562Z,13.00
2022-10-19T17:52:36.828Z,13.20
2022-10-19T17:55:12.080Z,13.30
2022-10-19T17:57:40.315Z,13.30
2022-10-19T18:00:09.378Z,13.80
2022-10-19T18:02:37.364Z,14.10
2022-10-19T18:05:05.629Z,13.70
2022-10-19T18:07:33.730Z,13.90
2022-10-19T18:10:03.154Z,13.80
2022-10-19T18:12:32.379Z,14.10
2022-10-19T18:15:00.325Z,13.90
2022-10-19T18:17:28.207Z,14.00
2022-10-19T18:19:56.084Z,13.80
2022-10-19T18:22:23.958Z,13.70
2022-10-19T18:24:51.820Z,13.30
2022-10-19T18:27:21.083Z,13.00
2022-10-19T18:29:48.944Z,13.00
2022-10-19T18:32:16.864Z,12.90
2022-10-19T18:34:44.851Z,12.80
2022-10-19T18:37:12.882Z,12.70
2022-10-19T18:39:40.895Z,12.60
2022-10-19T18:42:11.984Z,12.50
2022-10-19T18:44:41.223Z,12.50
2022-10-19T18:47:09.181Z,12.50
2022-10-19T18:49:37.043Z,12.60
2022-10-19T18:52:05.021Z,12.60
2022-10-19T18:54:32.893Z,12.70
2022-10-19T18:57:00.735Z,12.70
2022-10-19T18:59:28.601Z,12.70
2022-10-19T19:01:57.861Z,12.70
2022-10-19T19:04:25.782Z,12.80
2022-10-19T19:06:53.970Z,12.70
2022-10-19T19:09:22.087Z,12.60
2022-10-19T19:11:50.458Z,12.60
2022-10-19T19:14:20.875Z,12.60
2022-10-19T19:16:49.020Z,12.60
2022-10-19T19:19:19.767Z,12.50
2022-10-19T19:21:49.750Z,12.50
2022-10-19T19:24:20.174Z,12.50
2022-10-19T19:26:52.134Z,12.30
2022-10-19T19:29:20.785Z,12.40
2022-10-19T19:31:49.194Z,12.40
2022-10-19T19:34:19.002Z,12.50
2022-10-19T19:36:48.545Z,12.50
2022-10-19T19:39:18.590Z,12.40
2022-10-19T19:41:46.513Z,12.30
2022-10-19T19:44:14.455Z,12.30
2022-10-19T19:46:42.354Z,12.20
2022-10-19T19:49:10.363Z,12.10
2022-10-19T19:51:39.665Z,12.50
2022-10-19T19:54:07.687Z,13.10
2022-10-19T19:56:37.162Z,13.50
2022-10-19T19:59:05.065Z,13.50
2022-10-19T20:01:33.639Z,13.70
2022-10-19T20:06:36.411Z,13.90
2022-10-19T20:09:06.861Z,14.10
2022-10-19T20:11:37.242Z,14.10
2022-10-19T20:14:09.097Z,14.20
2022-10-19T20:16:37.056Z,14.60
2022-10-19T20:19:08.227Z,14.80
2022-10-19T20:21:36.330Z,15.10
2022-10-19T20:24:05.952Z,15.30
2022-10-19T20:26:34.470Z,15.20
2022-10-19T20:29:03.243Z,15.20
2022-10-19T20:31:33.223Z,15.00
2022-10-19T20:34:01.096Z,15.10
2022-10-19T20:36:29.021Z,15.20
2022-10-19T20:38:58.901Z,15.40
2022-10-19T20:41:29.519Z,15.40
2022-10-19T20:43:57.602Z,15.50
2022-10-19T20:46:26.928Z,15.50
2022-10-19T20:48:56.382Z,15.60
2022-10-19T20:51:30.606Z,15.60
2022-10-19T20:54:01.771Z,15.40
2022-10-19T20:56:33.391Z,15.40
2022-10-19T21:01:37.705Z,15.30
2022-10-19T21:04:08.113Z,14.80
2022-10-19T21:06:38.582Z,14.70
2022-10-19T21:09:06.781Z,14.40
2022-10-19T21:11:37.559Z,13.90
2022-10-19T21:14:07.233Z,13.80
2022-10-19T21:16:35.379Z,13.50
2022-10-19T21:19:04.973Z,13.50
2022-10-19T21:21:34.523Z,13.60
2022-10-19T21:24:04.922Z,13.70
2022-10-19T21:26:36.327Z,13.70
2022-10-19T21:29:05.076Z,14.00
2022-10-19T21:31:32.951Z,14.10
2022-10-19T21:34:04.487Z,14.20
2022-10-19T21:36:32.469Z,14.40
2022-10-19T21:39:00.392Z,14.40
2022-10-19T21:41:28.275Z,14.60
2022-10-19T21:43:57.561Z,14.40
2022-10-19T21:46:25.819Z,14.20
2022-10-19T21:48:55.159Z,14.10
2022-10-19T21:51:31.452Z,13.80
2022-10-19T21:53:59.694Z,13.80
2022-10-19T21:56:27.790Z,14.00
2022-10-19T21:58:58.000Z,14.30
2022-10-19T22:01:27.674Z,14.30
2022-10-19T22:03:59.120Z,14.10
2022-10-19T22:06:28.185Z,13.80
2022-10-19T22:08:56.711Z,13.50
2022-10-19T22:11:25.386Z,13.20
2022-10-19T22:13:55.667Z,13.50
2022-10-19T22:16:26.101Z,13.70
2022-10-19T22:18:54.817Z,13.80
2022-10-19T22:21:25.143Z,13.60
2022-10-19T22:23:54.018Z,13.20
2022-10-19T22:26:24.913Z,13.30
2022-10-19T22:28:53.054Z,13.50
2022-10-19T22:31:21.130Z,12.90
2022-10-19T22:33:50.425Z,13.00
2022-10-19T22:36:18.887Z,12.80
2022-10-19T22:38:46.812Z,13.00
2022-10-19T22:41:14.697Z,13.20
2022-10-19T22:43:42.544Z,13.30
2022-10-19T22:46:10.418Z,13.60
2022-10-19T22:48:38.287Z,13.80
2022-10-19T22:51:07.745Z,14.00
2022-10-19T22:53:35.655Z,13.70
2022-10-19T22:56:03.516Z,13.90
2022-10-19T22:58:31.413Z,13.90
2022-10-19T23:01:03.895Z,14.20
2022-10-19T23:03:31.755Z,14.40
2022-10-19T23:05:59.731Z,13.80
2022-10-19T23:08:29.081Z,13.20
2022-10-19T23:10:57.121Z,13.00
2022-10-19T23:13:25.139Z,12.80
2022-10-19T23:15:53.007Z,12.70
2022-10-19T23:18:21.511Z,12.50
2022-10-19T23:20:56.305Z,12.60
2022-10-19T23:23:24.505Z,12.80
2022-10-19T23:26:01.145Z,12.70
2022-10-19T23:28:29.648Z,12.80
2022-10-19T23:30:58.790Z,12.90
2022-10-19T23:33:27.417Z,13.00
2022-10-19T23:35:55.243Z,13.00
2022-10-19T23:38:23.110Z,13.20
2022-10-19T23:40:50.967Z,13.60
2022-10-19T23:43:20.173Z,13.40
2022-10-19T23:45:48.126Z,12.90
2022-10-19T23:48:16.020Z,12.70
2022-10-19T23:50:43.885Z,12.40
2022-10-19T23:53:11.950Z,12.10
2022-10-19T23:55:39.822Z,12.10
2022-10-19T23:58:07.671Z,12.20
